LEMG Información de aeropuertos

Información de pistas
Pista 12 Longitud 9022 ft Ancho 148 ft
Elevación 52 ft Umbral 0 ft Rumbo 119
Pista 30 Longitud 9022 ft Ancho 148 ft
Elevación 31 ft Umbral 0 ft Rumbo 299
Pista 13 Longitud 10500 ft Ancho 148 ft
Elevación 52 ft Umbral 0 ft Rumbo 133
Pista 31 Longitud 10500 ft Ancho 148 ft
Elevación 31 ft Umbral 0 ft Rumbo 313
Frecuencias
Tipo A/D Nombre APP Frequencia 123.85 MHZ
Tipo ATIS Nombre ATIS Frequencia 120.375 MHZ
Tipo CLD Nombre CLR DEL Frequencia 121.875 MHZ
Tipo GND Nombre GND-W Frequencia 121.7 MHZ
Tipo GND Nombre GND-E Frequencia 121.95 MHZ
Tipo TWR Nombre TWR-W (RWY Frequencia 118.15 MHZ
Tipo TWR Nombre TWR-E (RWY Frequencia 118.775 MHZ
Radioayudas
Tipo VOR-DME Nombre Martin Frequencia 112600 KHZ
Tipo VOR-DME Nombre Malaga Frequencia 112000 KHZ
Tipo VOR-DME Nombre Malaga Frequencia 113550 KHZ
Tipo NDB Nombre Malaga Frequencia 330 KHZ
Información meteorológica y NOTAM
ADDS - METARS form results

(1805 UTC 23 September 2020)
Data provider http://aviationweather.gov/metar/data/
 
METAR text: LEMG 231800Z 10002KT CAVOK 27/18 Q1013 BECMG 28010KT
Conditions at: LEMG (MALAGA (CIV/MIL), ES) observed 1800 UTC 23 September 2020
Temperature: 27.0°C (81°F)
Dewpoint: 18.0°C (64°F) [RH = 58%]
Pressure (altimeter): 29.91 inches Hg (1013.0 mb)
Winds: from the E (100 degrees) at 2 MPH (2 knots; 1.0 m/s)
Visibility: 6 or more miles (10+ km)
Ceiling: ceiling and visibility are OK
Clouds: unknown
Weather: no significant weather observed at this time

METAR text: LEMG 231730Z 34004KT 280V020 9999 FEW070 29/15 Q1013 BECMG 28010KT
Conditions at: LEMG (MALAGA (CIV/MIL), ES) observed 1730 UTC 23 September 2020
Temperature: 29.0°C (84°F)
Dewpoint: 15.0°C (59°F) [RH = 43%]
Pressure (altimeter): 29.91 inches Hg (1013.0 mb)
Winds: from the NNW (340 degrees) at 5 MPH (4 knots; 2.1 m/s)
Visibility: 6 or more miles (10+ km)
Ceiling: at least 12,000 feet AGL
Clouds: few clouds at 7000 feet AGL
Weather: no significant weather observed at this time

Forecast for: LEMG (MALAGA (CIV/MIL), ES)
Text: TAF LEMG 231700Z 2318/2418 28010KT 9999 FEW045 TX32/2414Z TN22/2406Z
Forecast period: 1800 UTC 23 September 2020 to 1800 UTC 24 September 2020
Forecast type: FROM: standard forecast or significant change
Winds: from the W (280 degrees) at 12 MPH (10 knots; 5.1 m/s)
Visibility: 6 or more miles (10+ km)
Ceiling: at least 12,000 feet AGL
Clouds: few clouds at 4500 feet AGL
Weather: no significant weather forecast for this period